sensor_id;sensor_type;location;lat;lon;timestamp;temperature;humidity
32769;DHT22;23049;54.304;8.826;2023-03-01T00:00:10;1.50;99.90
32769;DHT22;23049;54.304;8.826;2023-03-01T00:02:36;1.50;99.90
32769;DHT22;23049;54.304;8.826;2023-03-01T00:05:02;1.50;99.90
32769;DHT22;23049;54.304;8.826;2023-03-01T00:07:28;1.60;99.90
32769;DHT22;23049;54.304;8.826;2023-03-01T00:09:53;1.60;99.90
32769;DHT22;23049;54.304;8.826;2023-03-01T00:12:19;1.60;99.90
32769;DHT22;23049;54.304;8.826;2023-03-01T00:14:45;1.60;99.90
32769;DHT22;23049;54.304;8.826;2023-03-01T00:17:10;1.80;99.90
32769;DHT22;23049;54.304;8.826;2023-03-01T00:19:36;1.80;99.90
32769;DHT22;23049;54.304;8.826;2023-03-01T00:22:01;1.70;99.90
32769;DHT22;23049;54.304;8.826;2023-03-01T00:24:27;1.60;99.90
32769;DHT22;23049;54.304;8.826;2023-03-01T00:26:53;1.70;99.90
32769;DHT22;23049;54.304;8.826;2023-03-01T00:29:21;1.70;99.90
32769;DHT22;23049;54.304;8.826;2023-03-01T00:31:46;1.60;99.90
32769;DHT22;23049;54.304;8.826;2023-03-01T00:34:12;1.60;99.90
32769;DHT22;23049;54.304;8.826;2023-03-01T00:36:37;1.60;99.90
32769;DHT22;23049;54.304;8.826;2023-03-01T00:39:04;1.70;99.90
32769;DHT22;23049;54.304;8.826;2023-03-01T00:41:29;1.80;99.90
32769;DHT22;23049;54.304;8.826;2023-03-01T00:43:55;1.80;99.90
32769;DHT22;23049;54.304;8.826;2023-03-01T00:46:25;1.80;99.90
32769;DHT22;23049;54.304;8.826;2023-03-01T00:48:50;1.70;99.90
32769;DHT22;23049;54.304;8.826;2023-03-01T00:51:17;1.60;99.90
32769;DHT22;23049;54.304;8.826;2023-03-01T00:53:43;1.50;99.90
32769;DHT22;23049;54.304;8.826;2023-03-01T00:56:10;1.60;99.90
32769;DHT22;23049;54.304;8.826;2023-03-01T00:58:35;1.70;99.90
32769;DHT22;23049;54.304;8.826;2023-03-01T01:01:06;1.70;99.90
32769;DHT22;23049;54.304;8.826;2023-03-01T01:03:32;1.50;99.90
32769;DHT22;23049;54.304;8.826;2023-03-01T01:05:57;1.10;99.90
32769;DHT22;23049;54.304;8.826;2023-03-01T01:08:23;1.00;99.90
32769;DHT22;23049;54.304;8.826;2023-03-01T01:10:48;1.00;99.90
32769;DHT22;23049;54.304;8.826;2023-03-01T01:13:14;1.30;99.90
32769;DHT22;23049;54.304;8.826;2023-03-01T01:15:39;1.40;99.90
32769;DHT22;23049;54.304;8.826;2023-03-01T01:18:05;1.50;99.90
32769;DHT22;23049;54.304;8.826;2023-03-01T01:20:31;1.60;99.90
32769;DHT22;23049;54.304;8.826;2023-03-01T01:22:57;1.60;99.90
32769;DHT22;23049;54.304;8.826;2023-03-01T01:25:23;1.60;99.90
32769;DHT22;23049;54.304;8.826;2023-03-01T01:27:50;1.70;99.90
32769;DHT22;23049;54.304;8.826;2023-03-01T01:30:17;1.60;99.90
32769;DHT22;23049;54.304;8.826;2023-03-01T01:32:42;1.70;99.90
32769;DHT22;23049;54.304;8.826;2023-03-01T01:35:08;1.70;99.90
32769;DHT22;23049;54.304;8.826;2023-03-01T01:37:33;1.70;99.90
32769;DHT22;23049;54.304;8.826;2023-03-01T01:39:59;1.70;99.90
32769;DHT22;23049;54.304;8.826;2023-03-01T01:42:25;1.70;99.90
32769;DHT22;23049;54.304;8.826;2023-03-01T01:47:35;1.80;99.90
32769;DHT22;23049;54.304;8.826;2023-03-01T01:50:01;1.70;99.90
32769;DHT22;23049;54.304;8.826;2023-03-01T01:52:31;1.70;99.90
32769;DHT22;23049;54.304;8.826;2023-03-01T01:55:07;1.70;99.90
32769;DHT22;23049;54.304;8.826;2023-03-01T01:57:41;1.60;99.90
32769;DHT22;23049;54.304;8.826;2023-03-01T02:00:08;1.60;99.90
32769;DHT22;23049;54.304;8.826;2023-03-01T02:02:34;1.60;99.90
32769;DHT22;23049;54.304;8.826;2023-03-01T02:05:04;1.50;99.90
32769;DHT22;23049;54.304;8.826;2023-03-01T02:07:35;1.50;99.90
32769;DHT22;23049;54.304;8.826;2023-03-01T02:10:02;1.60;99.90
32769;DHT22;23049;54.304;8.826;2023-03-01T02:12:27;1.60;99.90
32769;DHT22;23049;54.304;8.826;2023-03-01T02:14:53;1.70;99.90
32769;DHT22;23049;54.304;8.826;2023-03-01T02:17:19;1.70;99.90
32769;DHT22;23049;54.304;8.826;2023-03-01T02:19:57;1.60;99.90
32769;DHT22;23049;54.304;8.826;2023-03-01T02:22:27;1.60;99.90
32769;DHT22;23049;54.304;8.826;2023-03-01T02:25:01;1.60;99.90
32769;DHT22;23049;54.304;8.826;2023-03-01T02:30:14;1.50;99.90
32769;DHT22;23049;54.304;8.826;2023-03-01T02:32:40;1.40;99.90
32769;DHT22;23049;54.304;8.826;2023-03-01T02:35:10;1.40;99.90
32769;DHT22;23049;54.304;8.826;2023-03-01T02:37:36;1.50;99.90
32769;DHT22;23049;54.304;8.826;2023-03-01T02:40:04;1.50;99.90
32769;DHT22;23049;54.304;8.826;2023-03-01T02:42:33;1.50;99.90
32769;DHT22;23049;54.304;8.826;2023-03-01T02:45:00;1.50;99.90
32769;DHT22;23049;54.304;8.826;2023-03-01T02:47:26;1.50;99.90
32769;DHT22;23049;54.304;8.826;2023-03-01T02:49:51;1.50;99.90
32769;DHT22;23049;54.304;8.826;2023-03-01T02:52:28;1.50;99.90
32769;DHT22;23049;54.304;8.826;2023-03-01T02:55:03;1.50;99.90
32769;DHT22;23049;54.304;8.826;2023-03-01T02:57:30;1.50;99.90
32769;DHT22;23049;54.304;8.826;2023-03-01T02:59:56;1.60;99.90
32769;DHT22;23049;54.304;8.826;2023-03-01T03:02:27;1.60;99.90
32769;DHT22;23049;54.304;8.826;2023-03-01T03:05:04;1.50;99.90
32769;DHT22;23049;54.304;8.826;2023-03-01T03:07:32;1.60;99.90
32769;DHT22;23049;54.304;8.826;2023-03-01T03:09:57;1.60;99.90
32769;DHT22;23049;54.304;8.826;2023-03-01T03:12:23;1.60;99.90
32769;DHT22;23049;54.304;8.826;2023-03-01T03:14:48;1.60;99.90
32769;DHT22;23049;54.304;8.826;2023-03-01T03:17:14;1.60;99.90
32769;DHT22;23049;54.304;8.826;2023-03-01T03:19:39;1.60;99.90
32769;DHT22;23049;54.304;8.826;2023-03-01T03:22:05;1.50;99.90
32769;DHT22;23049;54.304;8.826;2023-03-01T03:24:30;1.50;99.90
32769;DHT22;23049;54.304;8.826;2023-03-01T03:27:06;1.50;99.90
32769;DHT22;23049;54.304;8.826;2023-03-01T03:29:32;1.40;99.90
32769;DHT22;23049;54.304;8.826;2023-03-01T03:31:58;1.40;99.90
32769;DHT22;23049;54.304;8.826;2023-03-01T03:34:23;1.40;99.90
32769;DHT22;23049;54.304;8.826;2023-03-01T03:36:53;1.40;99.90
32769;DHT22;23049;54.304;8.826;2023-03-01T03:39:22;1.50;99.90
32769;DHT22;23049;54.304;8.826;2023-03-01T03:41:48;1.30;99.90
32769;DHT22;23049;54.304;8.826;2023-03-01T03:44:14;1.30;99.90
32769;DHT22;23049;54.304;8.826;2023-03-01T03:46:39;1.30;99.90
32769;DHT22;23049;54.304;8.826;2023-03-01T03:49:05;1.20;99.90
32769;DHT22;23049;54.304;8.826;2023-03-01T03:51:30;1.30;99.90
32769;DHT22;23049;54.304;8.826;2023-03-01T03:53:55;1.40;99.90
32769;DHT22;23049;54.304;8.826;2023-03-01T03:56:21;1.40;99.90
32769;DHT22;23049;54.304;8.826;2023-03-01T03:58:51;1.40;99.90
32769;DHT22;23049;54.304;8.826;2023-03-01T04:01:17;1.40;99.90
32769;DHT22;23049;54.304;8.826;2023-03-01T04:03:42;1.50;99.90
32769;DHT22;23049;54.304;8.826;2023-03-01T04:06:12;1.50;99.90
32769;DHT22;23049;54.304;8.826;2023-03-01T04:08:37;1.50;99.90
32769;DHT22;23049;54.304;8.826;2023-03-01T04:11:03;1.40;99.90
32769;DHT22;23049;54.304;8.826;2023-03-01T04:13:49;1.50;99.90
32769;DHT22;23049;54.304;8.826;2023-03-01T04:16:15;1.50;99.90
32769;DHT22;23049;54.304;8.826;2023-03-01T04:18:41;1.40;99.90
32769;DHT22;23049;54.304;8.826;2023-03-01T04:21:07;1.40;99.90
32769;DHT22;23049;54.304;8.826;2023-03-01T04:23:32;1.40;99.90
32769;DHT22;23049;54.304;8.826;2023-03-01T04:25:58;1.50;99.90
32769;DHT22;23049;54.304;8.826;2023-03-01T04:28:25;1.70;99.90
32769;DHT22;23049;54.304;8.826;2023-03-01T04:30:54;1.90;99.90
32769;DHT22;23049;54.304;8.826;2023-03-01T04:33:21;2.10;99.90
32769;DHT22;23049;54.304;8.826;2023-03-01T04:35:46;2.20;99.90
32769;DHT22;23049;54.304;8.826;2023-03-01T04:38:14;2.20;99.90
32769;DHT22;23049;54.304;8.826;2023-03-01T04:40:40;2.30;99.90
32769;DHT22;23049;54.304;8.826;2023-03-01T04:43:08;2.30;99.90
32769;DHT22;23049;54.304;8.826;2023-03-01T04:45:33;2.20;99.90
32769;DHT22;23049;54.304;8.826;2023-03-01T04:47:59;2.30;99.90
32769;DHT22;23049;54.304;8.826;2023-03-01T04:50:25;2.40;99.90
32769;DHT22;23049;54.304;8.826;2023-03-01T04:52:51;2.20;99.90
32769;DHT22;23049;54.304;8.826;2023-03-01T04:55:17;2.00;99.90
32769;DHT22;23049;54.304;8.826;2023-03-01T04:57:42;1.90;99.90
32769;DHT22;23049;54.304;8.826;2023-03-01T05:00:09;1.90;99.90
32769;DHT22;23049;54.304;8.826;2023-03-01T05:05:14;1.90;99.90
32769;DHT22;23049;54.304;8.826;2023-03-01T05:07:39;1.90;99.90
32769;DHT22;23049;54.304;8.826;2023-03-01T05:10:05;1.90;99.90
32769;DHT22;23049;54.304;8.826;2023-03-01T05:12:30;1.90;99.90
32769;DHT22;23049;54.304;8.826;2023-03-01T05:14:56;1.80;99.90
32769;DHT22;23049;54.304;8.826;2023-03-01T05:17:21;1.80;99.90
32769;DHT22;23049;54.304;8.826;2023-03-01T05:19:47;1.90;99.90
32769;DHT22;23049;54.304;8.826;2023-03-01T05:22:12;2.00;99.90
32769;DHT22;23049;54.304;8.826;2023-03-01T05:24:38;2.00;99.90
32769;DHT22;23049;54.304;8.826;2023-03-01T05:27:03;1.90;99.90
32769;DHT22;23049;54.304;8.826;2023-03-01T05:29:30;2.10;99.90
32769;DHT22;23049;54.304;8.826;2023-03-01T05:31:57;2.10;99.90
32769;DHT22;23049;54.304;8.826;2023-03-01T05:34:33;2.10;99.90
32769;DHT22;23049;54.304;8.826;2023-03-01T05:36:59;2.30;99.90
32769;DHT22;23049;54.304;8.826;2023-03-01T05:39:25;2.30;99.90
32769;DHT22;23049;54.304;8.826;2023-03-01T05:41:54;2.40;99.90
32769;DHT22;23049;54.304;8.826;2023-03-01T05:44:20;2.40;99.90
32769;DHT22;23049;54.304;8.826;2023-03-01T05:46:46;2.60;99.90
32769;DHT22;23049;54.304;8.826;2023-03-01T05:49:12;2.60;99.90
32769;DHT22;23049;54.304;8.826;2023-03-01T05:51:39;2.60;99.90
32769;DHT22;23049;54.304;8.826;2023-03-01T05:54:04;2.50;99.90
32769;DHT22;23049;54.304;8.826;2023-03-01T05:56:34;2.70;99.90
32769;DHT22;23049;54.304;8.826;2023-03-01T05:59:00;2.70;99.90
32769;DHT22;23049;54.304;8.826;2023-03-01T06:01:25;2.50;99.90
32769;DHT22;23049;54.304;8.826;2023-03-01T06:03:51;2.70;99.90
32769;DHT22;23049;54.304;8.826;2023-03-01T06:06:16;2.50;99.90
32769;DHT22;23049;54.304;8.826;2023-03-01T06:08:42;2.50;99.90
32769;DHT22;23049;54.304;8.826;2023-03-01T06:11:08;2.40;99.90
32769;DHT22;23049;54.304;8.826;2023-03-01T06:13:33;2.40;99.90
32769;DHT22;23049;54.304;8.826;2023-03-01T06:15:59;2.40;99.90
32769;DHT22;23049;54.304;8.826;2023-03-01T06:18:24;2.40;99.90
32769;DHT22;23049;54.304;8.826;2023-03-01T06:20:53;2.50;99.90
32769;DHT22;23049;54.304;8.826;2023-03-01T06:23:19;2.50;99.90
32769;DHT22;23049;54.304;8.826;2023-03-01T06:25:44;2.60;99.90
32769;DHT22;23049;54.304;8.826;2023-03-01T06:28:10;2.70;99.90
32769;DHT22;23049;54.304;8.826;2023-03-01T06:30:35;2.70;99.90
32769;DHT22;23049;54.304;8.826;2023-03-01T06:33:01;2.70;99.90
32769;DHT22;23049;54.304;8.826;2023-03-01T06:35:28;2.70;99.90
32769;DHT22;23049;54.304;8.826;2023-03-01T06:37:56;2.60;99.90
32769;DHT22;23049;54.304;8.826;2023-03-01T06:40:22;2.70;99.90
32769;DHT22;23049;54.304;8.826;2023-03-01T06:42:48;2.70;99.90
32769;DHT22;23049;54.304;8.826;2023-03-01T06:45:17;2.80;99.90
32769;DHT22;23049;54.304;8.826;2023-03-01T06:47:43;2.80;99.90
32769;DHT22;23049;54.304;8.826;2023-03-01T06:50:09;2.80;99.90
32769;DHT22;23049;54.304;8.826;2023-03-01T06:52:34;2.90;99.90
32769;DHT22;23049;54.304;8.826;2023-03-01T06:55:00;2.90;99.90
32769;DHT22;23049;54.304;8.826;2023-03-01T06:57:25;2.90;99.90
32769;DHT22;23049;54.304;8.826;2023-03-01T06:59:51;3.00;99.90
32769;DHT22;23049;54.304;8.826;2023-03-01T07:02:16;3.10;99.90
32769;DHT22;23049;54.304;8.826;2023-03-01T07:04:42;3.10;99.90
32769;DHT22;23049;54.304;8.826;2023-03-01T07:07:08;3.10;99.90
32769;DHT22;23049;54.304;8.826;2023-03-01T07:09:33;3.40;99.90
32769;DHT22;23049;54.304;8.826;2023-03-01T07:11:59;3.50;99.90
32769;DHT22;23049;54.304;8.826;2023-03-01T07:14:24;3.60;99.90
32769;DHT22;23049;54.304;8.826;2023-03-01T07:16:51;3.40;99.90
32769;DHT22;23049;54.304;8.826;2023-03-01T07:19:18;3.40;99.90
32769;DHT22;23049;54.304;8.826;2023-03-01T07:21:43;3.40;99.90
32769;DHT22;23049;54.304;8.826;2023-03-01T07:24:09;3.40;99.90
32769;DHT22;23049;54.304;8.826;2023-03-01T07:26:35;3.40;99.90
32769;DHT22;23049;54.304;8.826;2023-03-01T07:29:04;3.40;99.90
32769;DHT22;23049;54.304;8.826;2023-03-01T07:31:30;3.50;99.90
32769;DHT22;23049;54.304;8.826;2023-03-01T07:33:55;3.60;99.90
32769;DHT22;23049;54.304;8.826;2023-03-01T07:36:21;3.60;99.90
32769;DHT22;23049;54.304;8.826;2023-03-01T07:38:46;3.60;99.90
32769;DHT22;23049;54.304;8.826;2023-03-01T07:41:12;3.70;99.90
32769;DHT22;23049;54.304;8.826;2023-03-01T07:43:39;3.60;99.90
32769;DHT22;23049;54.304;8.826;2023-03-01T07:46:06;3.60;99.90
32769;DHT22;23049;54.304;8.826;2023-03-01T07:48:37;3.60;99.90
32769;DHT22;23049;54.304;8.826;2023-03-01T07:51:04;3.60;99.90
32769;DHT22;23049;54.304;8.826;2023-03-01T07:53:30;3.70;99.90
32769;DHT22;23049;54.304;8.826;2023-03-01T07:56:00;3.70;99.90
32769;DHT22;23049;54.304;8.826;2023-03-01T07:58:26;3.80;99.90
32769;DHT22;23049;54.304;8.826;2023-03-01T08:00:52;3.80;99.90
32769;DHT22;23049;54.304;8.826;2023-03-01T08:03:17;3.70;99.90
32769;DHT22;23049;54.304;8.826;2023-03-01T08:05:43;3.70;99.90
32769;DHT22;23049;54.304;8.826;2023-03-01T08:08:09;3.80;99.90
32769;DHT22;23049;54.304;8.826;2023-03-01T08:10:35;3.70;99.90
32769;DHT22;23049;54.304;8.826;2023-03-01T08:13:01;3.80;99.90
32769;DHT22;23049;54.304;8.826;2023-03-01T08:15:27;3.80;99.90
32769;DHT22;23049;54.304;8.826;2023-03-01T08:17:52;3.90;99.90
32769;DHT22;23049;54.304;8.826;2023-03-01T08:20:18;3.90;99.90
32769;DHT22;23049;54.304;8.826;2023-03-01T08:22:44;3.90;99.90
32769;DHT22;23049;54.304;8.826;2023-03-01T08:25:09;3.90;99.90
32769;DHT22;23049;54.304;8.826;2023-03-01T08:27:35;3.90;99.90
32769;DHT22;23049;54.304;8.826;2023-03-01T08:30:01;3.70;99.90
32769;DHT22;23049;54.304;8.826;2023-03-01T08:32:26;3.80;99.90
32769;DHT22;23049;54.304;8.826;2023-03-01T08:34:52;3.80;99.90
32769;DHT22;23049;54.304;8.826;2023-03-01T08:37:17;3.90;99.90
32769;DHT22;23049;54.304;8.826;2023-03-01T08:39:43;3.90;99.90
32769;DHT22;23049;54.304;8.826;2023-03-01T08:42:08;3.80;99.90
32769;DHT22;23049;54.304;8.826;2023-03-01T08:44:34;3.90;99.90
32769;DHT22;23049;54.304;8.826;2023-03-01T08:47:00;3.90;99.90
32769;DHT22;23049;54.304;8.826;2023-03-01T08:49:27;3.90;99.90
32769;DHT22;23049;54.304;8.826;2023-03-01T08:51:52;3.90;99.90
32769;DHT22;23049;54.304;8.826;2023-03-01T08:54:19;3.90;99.90
32769;DHT22;23049;54.304;8.826;2023-03-01T08:56:45;3.90;99.90
32769;DHT22;23049;54.304;8.826;2023-03-01T08:59:11;4.00;99.90
32769;DHT22;23049;54.304;8.826;2023-03-01T09:01:37;4.00;99.90
32769;DHT22;23049;54.304;8.826;2023-03-01T09:04:02;4.10;99.90
32769;DHT22;23049;54.304;8.826;2023-03-01T09:06:32;4.10;99.90
32769;DHT22;23049;54.304;8.826;2023-03-01T09:08:58;4.10;99.90
32769;DHT22;23049;54.304;8.826;2023-03-01T09:11:24;4.10;99.90
32769;DHT22;23049;54.304;8.826;2023-03-01T09:13:49;4.10;99.90
32769;DHT22;23049;54.304;8.826;2023-03-01T09:16:16;4.20;99.90
32769;DHT22;23049;54.304;8.826;2023-03-01T09:18:43;4.10;99.90
32769;DHT22;23049;54.304;8.826;2023-03-01T09:23:38;4.10;99.90
32769;DHT22;23049;54.304;8.826;2023-03-01T09:26:05;4.20;99.90
32769;DHT22;23049;54.304;8.826;2023-03-01T09:28:31;4.20;99.90
32769;DHT22;23049;54.304;8.826;2023-03-01T09:31:00;4.10;99.90
32769;DHT22;23049;54.304;8.826;2023-03-01T09:33:26;4.00;99.90
32769;DHT22;23049;54.304;8.826;2023-03-01T09:36:01;4.00;99.90
32769;DHT22;23049;54.304;8.826;2023-03-01T09:38:27;4.00;99.90
32769;DHT22;23049;54.304;8.826;2023-03-01T09:40:53;3.90;99.90
32769;DHT22;23049;54.304;8.826;2023-03-01T09:43:21;4.00;99.90
32769;DHT22;23049;54.304;8.826;2023-03-01T09:45:48;3.90;99.90
32769;DHT22;23049;54.304;8.826;2023-03-01T09:48:16;3.90;99.90
32769;DHT22;23049;54.304;8.826;2023-03-01T09:50:43;3.90;99.90
32769;DHT22;23049;54.304;8.826;2023-03-01T09:53:10;4.10;99.90
32769;DHT22;23049;54.304;8.826;2023-03-01T09:58:28;4.20;99.90
32769;DHT22;23049;54.304;8.826;2023-03-01T10:00:54;4.30;99.90
32769;DHT22;23049;54.304;8.826;2023-03-01T10:06:04;4.20;99.90
32769;DHT22;23049;54.304;8.826;2023-03-01T10:08:46;4.20;99.90
32769;DHT22;23049;54.304;8.826;2023-03-01T10:11:20;4.20;99.90
32769;DHT22;23049;54.304;8.826;2023-03-01T10:13:47;4.40;99.90
32769;DHT22;23049;54.304;8.826;2023-03-01T10:18:53;4.50;99.90
32769;DHT22;23049;54.304;8.826;2023-03-01T10:21:21;4.60;99.90
32769;DHT22;23049;54.304;8.826;2023-03-01T10:23:47;4.60;99.90
32769;DHT22;23049;54.304;8.826;2023-03-01T10:31:26;4.40;99.90
32769;DHT22;23049;54.304;8.826;2023-03-01T10:33:55;4.50;99.90
32769;DHT22;23049;54.304;8.826;2023-03-01T10:36:22;4.60;99.90
32769;DHT22;23049;54.304;8.826;2023-03-01T10:38:52;4.60;99.90
32769;DHT22;23049;54.304;8.826;2023-03-01T10:41:19;4.40;99.90
32769;DHT22;23049;54.304;8.826;2023-03-01T10:43:46;4.50;99.90
32769;DHT22;23049;54.304;8.826;2023-03-01T10:46:22;4.40;99.90
32769;DHT22;23049;54.304;8.826;2023-03-01T10:49:04;4.40;99.90
32769;DHT22;23049;54.304;8.826;2023-03-01T10:51:30;4.40;99.90
32769;DHT22;23049;54.304;8.826;2023-03-01T10:53:56;4.40;99.90
32769;DHT22;23049;54.304;8.826;2023-03-01T10:56:21;4.40;99.90
32769;DHT22;23049;54.304;8.826;2023-03-01T10:58:57;4.40;99.90
32769;DHT22;23049;54.304;8.826;2023-03-01T11:01:33;4.30;99.90
32769;DHT22;23049;54.304;8.826;2023-03-01T11:06:32;4.20;99.90
32769;DHT22;23049;54.304;8.826;2023-03-01T11:09:01;4.20;99.90
32769;DHT22;23049;54.304;8.826;2023-03-01T11:11:38;4.20;99.90
32769;DHT22;23049;54.304;8.826;2023-03-01T11:16:35;4.40;99.90
32769;DHT22;23049;54.304;8.826;2023-03-01T11:21:30;4.30;99.90
32769;DHT22;23049;54.304;8.826;2023-03-01T11:23:58;4.30;99.90
32769;DHT22;23049;54.304;8.826;2023-03-01T11:26:25;4.50;99.90
32769;DHT22;23049;54.304;8.826;2023-03-01T11:28:51;4.60;99.90
32769;DHT22;23049;54.304;8.826;2023-03-01T11:31:19;4.60;99.90
32769;DHT22;23049;54.304;8.826;2023-03-01T11:33:47;4.50;99.90
32769;DHT22;23049;54.304;8.826;2023-03-01T11:36:20;4.60;99.90
32769;DHT22;23049;54.304;8.826;2023-03-01T11:38:49;4.90;99.90
32769;DHT22;23049;54.304;8.826;2023-03-01T11:41:16;4.90;99.90
32769;DHT22;23049;54.304;8.826;2023-03-01T11:43:58;4.80;99.90
32769;DHT22;23049;54.304;8.826;2023-03-01T11:51:35;4.80;99.90
32769;DHT22;23049;54.304;8.826;2023-03-01T11:56:52;5.10;99.90
32769;DHT22;23049;54.304;8.826;2023-03-01T12:07:04;5.20;99.90
32769;DHT22;23049;54.304;8.826;2023-03-01T12:12:25;5.00;99.90
32769;DHT22;23049;54.304;8.826;2023-03-01T12:22:49;5.00;99.90
32769;DHT22;23049;54.304;8.826;2023-03-01T12:25:34;5.00;99.90
32769;DHT22;23049;54.304;8.826;2023-03-01T12:33:06;5.10;99.90
32769;DHT22;23049;54.304;8.826;2023-03-01T12:35:50;5.30;99.90
32769;DHT22;23049;54.304;8.826;2023-03-01T12:38:37;5.20;99.90
32769;DHT22;23049;54.304;8.826;2023-03-01T12:41:11;5.10;99.90
32769;DHT22;23049;54.304;8.826;2023-03-01T12:46:15;5.00;99.90
32769;DHT22;23049;54.304;8.826;2023-03-01T12:51:20;5.00;99.90
32769;DHT22;23049;54.304;8.826;2023-03-01T12:53:48;5.00;99.90
32769;DHT22;23049;54.304;8.826;2023-03-01T12:56:18;5.20;99.90
32769;DHT22;23049;54.304;8.826;2023-03-01T13:04:07;4.90;99.90
32769;DHT22;23049;54.304;8.826;2023-03-01T13:11:43;4.80;99.90
32769;DHT22;23049;54.304;8.826;2023-03-01T13:14:34;4.80;99.90
32769;DHT22;23049;54.304;8.826;2023-03-01T13:17:00;4.90;99.90
32769;DHT22;23049;54.304;8.826;2023-03-01T13:19:26;5.00;99.90
32769;DHT22;23049;54.304;8.826;2023-03-01T13:21:54;5.20;99.90
32769;DHT22;23049;54.304;8.826;2023-03-01T13:24:27;5.20;99.90
32769;DHT22;23049;54.304;8.826;2023-03-01T13:29:43;5.10;99.90
32769;DHT22;23049;54.304;8.826;2023-03-01T13:32:18;5.30;99.90
32769;DHT22;23049;54.304;8.826;2023-03-01T13:34:45;5.30;99.90
32769;DHT22;23049;54.304;8.826;2023-03-01T13:37:18;5.10;99.90
32769;DHT22;23049;54.304;8.826;2023-03-01T13:39:44;5.10;99.90
32769;DHT22;23049;54.304;8.826;2023-03-01T13:45:05;5.40;99.90
32769;DHT22;23049;54.304;8.826;2023-03-01T13:47:39;5.50;99.90
32769;DHT22;23049;54.304;8.826;2023-03-01T13:50:15;5.40;99.90
32769;DHT22;23049;54.304;8.826;2023-03-01T13:52:48;5.40;99.90
32769;DHT22;23049;54.304;8.826;2023-03-01T13:55:16;5.30;99.90
32769;DHT22;23049;54.304;8.826;2023-03-01T13:57:43;5.20;99.90
32769;DHT22;23049;54.304;8.826;2023-03-01T14:03:03;5.10;99.90
32769;DHT22;23049;54.304;8.826;2023-03-01T14:05:30;5.30;99.90
32769;DHT22;23049;54.304;8.826;2023-03-01T14:07:56;5.40;99.90
32769;DHT22;23049;54.304;8.826;2023-03-01T14:10:21;5.40;99.90
32769;DHT22;23049;54.304;8.826;2023-03-01T14:20:26;5.40;99.90
32769;DHT22;23049;54.304;8.826;2023-03-01T14:22:58;5.50;99.90
32769;DHT22;23049;54.304;8.826;2023-03-01T14:25:34;5.50;99.90
32769;DHT22;23049;54.304;8.826;2023-03-01T14:30:45;5.50;99.90
32769;DHT22;23049;54.304;8.826;2023-03-01T14:33:18;5.50;99.90
32769;DHT22;23049;54.304;8.826;2023-03-01T14:35:51;5.50;99.90
32769;DHT22;23049;54.304;8.826;2023-03-01T14:38:20;5.40;99.90
32769;DHT22;23049;54.304;8.826;2023-03-01T14:40:46;5.40;99.90
32769;DHT22;23049;54.304;8.826;2023-03-01T14:43:15;5.40;99.90
32769;DHT22;23049;54.304;8.826;2023-03-01T14:45:42;5.50;99.90
32769;DHT22;23049;54.304;8.826;2023-03-01T14:48:11;5.50;99.90
32769;DHT22;23049;54.304;8.826;2023-03-01T14:50:40;5.40;99.90
32769;DHT22;23049;54.304;8.826;2023-03-01T14:53:06;5.50;99.90
32769;DHT22;23049;54.304;8.826;2023-03-01T14:55:43;5.40;99.90
32769;DHT22;23049;54.304;8.826;2023-03-01T14:58:11;5.30;99.90
32769;DHT22;23049;54.304;8.826;2023-03-01T15:00:37;5.40;99.90
32769;DHT22;23049;54.304;8.826;2023-03-01T15:03:08;5.30;99.90
32769;DHT22;23049;54.304;8.826;2023-03-01T15:05:39;5.30;99.90
32769;DHT22;23049;54.304;8.826;2023-03-01T15:08:04;5.40;99.90
32769;DHT22;23049;54.304;8.826;2023-03-01T15:10:31;5.40;99.90
32769;DHT22;23049;54.304;8.826;2023-03-01T15:13:10;5.40;99.90
32769;DHT22;23049;54.304;8.826;2023-03-01T15:15:38;5.20;99.90
32769;DHT22;23049;54.304;8.826;2023-03-01T15:18:18;5.30;99.90
32769;DHT22;23049;54.304;8.826;2023-03-01T15:20:44;5.40;99.90
32769;DHT22;23049;54.304;8.826;2023-03-01T15:23:17;5.40;99.90
32769;DHT22;23049;54.304;8.826;2023-03-01T15:25:43;5.40;99.90
32769;DHT22;23049;54.304;8.826;2023-03-01T15:28:18;5.30;99.90
32769;DHT22;23049;54.304;8.826;2023-03-01T15:30:45;5.20;99.90
32769;DHT22;23049;54.304;8.826;2023-03-01T15:33:18;5.10;99.90
32769;DHT22;23049;54.304;8.826;2023-03-01T15:35:46;5.10;99.90
32769;DHT22;23049;54.304;8.826;2023-03-01T15:40:51;5.00;99.90
32769;DHT22;23049;54.304;8.826;2023-03-01T15:46:00;5.20;99.90
32769;DHT22;23049;54.304;8.826;2023-03-01T15:48:26;5.10;99.90
32769;DHT22;23049;54.304;8.826;2023-03-01T15:50:56;5.10;99.90
32769;DHT22;23049;54.304;8.826;2023-03-01T15:53:22;5.10;99.90
32769;DHT22;23049;54.304;8.826;2023-03-01T15:55:48;5.00;99.90
32769;DHT22;23049;54.304;8.826;2023-03-01T15:58:17;5.00;99.90
32769;DHT22;23049;54.304;8.826;2023-03-01T16:00:43;4.90;99.90
32769;DHT22;23049;54.304;8.826;2023-03-01T16:03:10;4.90;99.90
32769;DHT22;23049;54.304;8.826;2023-03-01T16:05:37;4.80;99.90
32769;DHT22;23049;54.304;8.826;2023-03-01T16:08:03;4.80;99.90
32769;DHT22;23049;54.304;8.826;2023-03-01T16:10:29;4.80;99.90
32769;DHT22;23049;54.304;8.826;2023-03-01T16:12:55;4.70;99.90
32769;DHT22;23049;54.304;8.826;2023-03-01T16:15:22;4.70;99.90
32769;DHT22;23049;54.304;8.826;2023-03-01T16:17:47;4.70;99.90
32769;DHT22;23049;54.304;8.826;2023-03-01T16:20:13;4.70;99.90
32769;DHT22;23049;54.304;8.826;2023-03-01T16:22:41;4.70;99.90
32769;DHT22;23049;54.304;8.826;2023-03-01T16:25:08;4.70;99.90
32769;DHT22;23049;54.304;8.826;2023-03-01T16:27:34;4.70;99.90
32769;DHT22;23049;54.304;8.826;2023-03-01T16:29:59;4.70;99.90
32769;DHT22;23049;54.304;8.826;2023-03-01T16:32:25;4.80;99.90
32769;DHT22;23049;54.304;8.826;2023-03-01T16:34:50;4.90;99.90
32769;DHT22;23049;54.304;8.826;2023-03-01T16:37:16;4.90;99.90
32769;DHT22;23049;54.304;8.826;2023-03-01T16:39:42;5.00;99.90
32769;DHT22;23049;54.304;8.826;2023-03-01T16:42:07;5.00;99.90
32769;DHT22;23049;54.304;8.826;2023-03-01T16:44:33;4.90;99.90
32769;DHT22;23049;54.304;8.826;2023-03-01T16:46:58;4.80;99.90
32769;DHT22;23049;54.304;8.826;2023-03-01T16:49:24;4.80;99.90
32769;DHT22;23049;54.304;8.826;2023-03-01T16:51:49;4.80;99.90
32769;DHT22;23049;54.304;8.826;2023-03-01T16:54:15;4.70;99.90
32769;DHT22;23049;54.304;8.826;2023-03-01T16:56:40;4.60;99.90
32769;DHT22;23049;54.304;8.826;2023-03-01T16:59:06;4.60;99.90
32769;DHT22;23049;54.304;8.826;2023-03-01T17:01:32;4.60;99.90
32769;DHT22;23049;54.304;8.826;2023-03-01T17:04:04;4.50;99.90
32769;DHT22;23049;54.304;8.826;2023-03-01T17:06:30;4.40;99.90
32769;DHT22;23049;54.304;8.826;2023-03-01T17:08:57;4.40;99.90
32769;DHT22;23049;54.304;8.826;2023-03-01T17:11:22;4.30;99.90
32769;DHT22;23049;54.304;8.826;2023-03-01T17:13:48;4.20;99.90
32769;DHT22;23049;54.304;8.826;2023-03-01T17:16:14;4.20;99.90
32769;DHT22;23049;54.304;8.826;2023-03-01T17:18:41;4.10;99.90
32769;DHT22;23049;54.304;8.826;2023-03-01T17:21:07;4.10;99.90
32769;DHT22;23049;54.304;8.826;2023-03-01T17:23:33;4.10;99.90
32769;DHT22;23049;54.304;8.826;2023-03-01T17:25:59;4.00;99.90
32769;DHT22;23049;54.304;8.826;2023-03-01T17:28:26;4.00;99.90